Time;durP1;ratioP1;P1;durP2;ratioP2;P2;SDS_P1;SDS_P2;PMS_P1;PMS_P2;Temp;Humidity;BMP_temperature;BMP_pressure;BME280_temperature;BME280_humidity;BME280_pressure;Samples;Min_cycle;Max_cycle;Signal;HPM_P1;HPM_P2
2024/02/24 00:00:43;;;;;;;4.38;2.00;;;;;;;5.74;100.00;99359.03;5248779;28;20016;-74
2024/02/24 00:03:14;;;;;;;5.30;2.40;;;;;;;5.77;100.00;99356.03;5250760;28;20024;-75
2024/02/24 00:05:44;;;;;;;4.95;2.28;;;;;;;5.76;100.00;99351.69;5254620;28;20035;-75
2024/02/24 00:08:15;;;;;;;3.95;2.00;;;;;;;5.81;100.00;99360.00;5256209;28;20108;-75
2024/02/24 00:10:46;;;;;;;6.22;2.72;;;;;;;5.81;100.00;99359.19;5254513;28;20020;-75
2024/02/24 00:13:17;;;;;;;8.30;3.22;;;;;;;5.74;100.00;99350.22;5250358;28;20334;-75
2024/02/24 00:15:47;;;;;;;8.40;3.88;;;;;;;5.82;100.00;99347.53;5250248;28;20119;-74
2024/02/24 00:18:19;;;;;;;5.85;2.35;;;;;;;5.83;100.00;99352.69;5246683;28;20124;-75
2024/02/24 00:20:49;;;;;;;6.72;2.50;;;;;;;5.85;100.00;99353.34;5251397;28;24244;-74
2024/02/24 00:23:21;;;;;;;4.63;2.20;;;;;;;5.85;100.00;99358.66;5250432;28;20060;-74
2024/02/24 00:25:51;;;;;;;4.88;2.97;;;;;;;5.82;100.00;99355.50;5250348;28;20016;-75
2024/02/24 00:28:22;;;;;;;6.78;2.03;;;;;;;5.90;100.00;99355.50;5249187;28;20074;-74
2024/02/24 00:30:52;;;;;;;4.35;2.17;;;;;;;5.77;100.00;99350.69;5248216;28;20021;-75
2024/02/24 00:33:23;;;;;;;4.03;2.08;;;;;;;5.91;100.00;99355.34;5252894;28;20028;-74
2024/02/24 00:35:53;;;;;;;4.40;2.30;;;;;;;5.88;100.00;99354.84;5249308;28;20462;-75
2024/02/24 00:38:24;;;;;;;5.38;2.30;;;;;;;5.87;100.00;99358.47;5252221;28;20558;-74
2024/02/24 00:40:54;;;;;;;9.35;2.22;;;;;;;5.84;100.00;99354.34;5248497;28;20370;-74
2024/02/24 00:43:25;;;;;;;3.42;1.95;;;;;;;5.94;100.00;99355.00;5245609;28;20029;-75
2024/02/24 00:45:55;;;;;;;4.75;1.63;;;;;;;6.02;100.00;99356.78;5247584;28;20127;-74
2024/02/24 00:48:26;;;;;;;2.00;1.17;;;;;;;6.02;100.00;99358.63;5253374;28;20029;-75
2024/02/24 00:50:57;;;;;;;3.42;1.45;;;;;;;6.11;100.00;99360.25;5248330;28;20031;-75
2024/02/24 00:53:27;;;;;;;3.63;1.30;;;;;;;6.08;100.00;99361.44;5251189;28;20029;-75
2024/02/24 00:55:58;;;;;;;3.70;1.20;;;;;;;6.08;100.00;99361.44;5246692;28;20489;-75
2024/02/24 00:58:28;;;;;;;1.15;0.98;;;;;;;6.03;100.00;99368.28;5251687;28;20095;-74
2024/02/24 01:00:59;;;;;;;3.53;1.60;;;;;;;6.03;100.00;99366.47;5247006;28;20029;-74
2024/02/24 01:03:29;;;;;;;3.28;1.48;;;;;;;5.96;100.00;99362.81;5246875;28;20020;-74
2024/02/24 01:06:00;;;;;;;2.20;1.30;;;;;;;6.04;100.00;99359.28;5250139;28;20021;-74
2024/02/24 01:08:30;;;;;;;2.03;1.10;;;;;;;6.09;100.00;99359.59;5250774;28;20119;-74
2024/02/24 01:11:01;;;;;;;2.50;1.23;;;;;;;6.09;100.00;99362.25;5250639;28;20024;-74
2024/02/24 01:13:31;;;;;;;2.78;1.08;;;;;;;6.05;100.00;99366.28;5252453;28;20666;-75
2024/02/24 01:16:02;;;;;;;2.65;1.30;;;;;;;6.07;100.00;99364.25;5250400;28;20046;-74
2024/02/24 01:18:32;;;;;;;6.85;1.08;;;;;;;6.02;100.00;99362.09;5249114;28;20027;-75
2024/02/24 01:21:03;;;;;;;2.65;1.05;;;;;;;5.96;100.00;99368.13;5248713;28;20497;-74
2024/02/24 01:23:33;;;;;;;3.72;1.20;;;;;;;5.90;100.00;99369.63;5250899;28;20119;-75
2024/02/24 01:26:04;;;;;;;2.72;1.10;;;;;;;5.78;100.00;99363.03;5247141;28;20025;-74
2024/02/24 01:28:36;;;;;;;5.20;2.05;;;;;;;5.80;100.00;99368.16;5251204;28;20024;-75
2024/02/24 01:31:07;;;;;;;6.20;2.22;;;;;;;5.87;100.00;99369.13;5246259;28;20101;-75
2024/02/24 01:33:37;;;;;;;3.35;1.92;;;;;;;5.77;100.00;99366.66;5243953;28;20455;-75
2024/02/24 01:36:07;;;;;;;7.80;3.08;;;;;;;5.74;100.00;99382.16;5247484;28;20033;-75
2024/02/24 01:38:38;;;;;;;5.28;2.42;;;;;;;5.71;100.00;99375.34;5254225;28;20089;-74
2024/02/24 01:41:09;;;;;;;6.10;2.53;;;;;;;5.67;100.00;99372.22;5246936;28;20100;-74
2024/02/24 01:43:40;;;;;;;7.72;2.53;;;;;;;5.64;100.00;99369.06;5263829;28;20028;-75
2024/02/24 01:46:13;;;;;;;5.03;2.42;;;;;;;5.60;100.00;99368.56;5249690;28;20032;-75
2024/02/24 01:48:45;;;;;;;4.38;2.22;;;;;;;5.68;100.00;99373.03;5248550;28;20027;-74
2024/02/24 01:51:15;;;;;;;6.55;2.00;;;;;;;5.70;100.00;99371.84;5248038;28;20020;-75
2024/02/24 01:53:46;;;;;;;3.15;1.40;;;;;;;5.68;100.00;99378.34;5255514;28;20078;-74
2024/02/24 01:56:18;;;;;;;2.85;1.48;;;;;;;5.66;100.00;99388.31;5246132;28;20067;-74
2024/02/24 01:58:49;;;;;;;2.70;1.10;;;;;;;5.61;100.00;99382.69;5255498;28;20401;-74
2024/02/24 02:01:19;;;;;;;2.72;1.20;;;;;;;5.77;100.00;99390.63;5253932;28;20042;-75
2024/02/24 02:03:52;;;;;;;2.88;1.48;;;;;;;5.75;100.00;99389.13;5251756;28;20441;-75
2024/02/24 02:06:28;;;;;;;3.40;1.48;;;;;;;5.74;100.00;99385.66;5248429;28;20107;-75
2024/02/24 02:09:03;;;;;;;2.83;1.45;;;;;;;5.80;100.00;99384.13;5248353;28;20025;-75
2024/02/24 02:11:33;;;;;;;3.38;1.63;;;;;;;5.70;100.00;99385.16;5254874;28;20020;-75
2024/02/24 02:14:05;;;;;;;6.00;2.22;;;;;;;5.68;100.00;99383.69;5252358;28;20478;-75
2024/02/24 02:16:36;;;;;;;7.10;2.60;;;;;;;5.75;100.00;99387.31;5250233;28;20028;-75
2024/02/24 02:19:07;;;;;;;4.32;1.77;;;;;;;5.80;100.00;99394.78;5245092;28;20025;-74
2024/02/24 02:21:41;;;;;;;3.42;1.60;;;;;;;5.80;100.00;99395.59;5255289;28;20031;-75
2024/02/24 02:24:12;;;;;;;4.68;2.08;;;;;;;5.83;100.00;99389.13;5251189;28;20028;-75
2024/02/24 02:26:42;;;;;;;4.07;2.30;;;;;;;5.87;100.00;99395.75;5253111;28;20031;-75
2024/02/24 02:29:13;;;;;;;4.03;1.77;;;;;;;5.84;100.00;99401.44;5250125;28;20035;-75
2024/02/24 02:31:43;;;;;;;2.65;1.83;;;;;;;5.87;100.00;99390.41;5246765;28;20126;-75
2024/02/24 02:34:14;;;;;;;6.78;2.50;;;;;;;5.88;100.00;99395.59;5248422;28;20115;-74
2024/02/24 02:36:44;;;;;;;5.88;2.50;;;;;;;5.84;100.00;99396.94;5253793;28;20081;-74
2024/02/24 02:39:15;;;;;;;4.53;1.98;;;;;;;5.89;100.00;99405.22;5249174;28;20058;-74
2024/02/24 02:41:45;;;;;;;6.60;2.55;;;;;;;5.86;100.00;99408.22;5251112;28;20028;-74
2024/02/24 02:44:16;;;;;;;4.50;2.38;;;;;;;5.84;100.00;99402.25;5249056;28;20071;-75
2024/02/24 02:46:47;;;;;;;5.40;2.45;;;;;;;5.86;100.00;99404.72;5252993;28;20160;-74
2024/02/24 02:49:18;;;;;;;4.93;3.38;;;;;;;5.91;100.00;99402.38;5251055;28;20098;-75
2024/02/24 02:51:49;;;;;;;4.22;2.38;;;;;;;5.97;100.00;99404.38;5250870;28;20026;-75
2024/02/24 02:54:20;;;;;;;5.15;2.42;;;;;;;5.94;100.00;99397.59;5244622;28;20029;-74
2024/02/24 02:56:50;;;;;;;5.22;2.58;;;;;;;6.06;100.00;99405.19;5251249;28;20028;-74
2024/02/24 02:59:21;;;;;;;3.78;2.45;;;;;;;6.01;100.00;99400.38;5246117;28;20048;-74
2024/02/24 03:01:51;;;;;;;4.60;2.30;;;;;;;6.01;100.00;99402.22;5251823;28;20111;-75
2024/02/24 03:04:22;;;;;;;4.28;2.55;;;;;;;6.06;100.00;99402.53;5249780;28;20025;-75
2024/02/24 03:06:53;;;;;;;2.47;1.73;;;;;;;6.03;100.00;99397.56;5249549;28;20024;-74
2024/02/24 03:09:23;;;;;;;8.00;2.58;;;;;;;5.99;100.00;99398.91;5248817;28;20032;-74
2024/02/24 03:12:05;;;;;;;6.57;2.38;;;;;;;6.02;100.00;99409.19;5250866;28;20028;-74
2024/02/24 03:14:36;;;;;;;4.78;2.53;;;;;;;5.94;100.00;99391.44;5252421;28;20020;-74
2024/02/24 03:17:07;;;;;;;3.63;2.40;;;;;;;5.97;100.00;99396.41;5248065;28;20393;-74
2024/02/24 03:19:39;;;;;;;3.95;2.28;;;;;;;5.96;100.00;99395.56;5252142;28;20020;-74
2024/02/24 03:22:10;;;;;;;6.22;2.63;;;;;;;5.92;100.00;99396.09;5251081;28;20394;-74
2024/02/24 03:24:42;;;;;;;6.00;2.67;;;;;;;5.83;100.00;99400.59;5251670;28;20039;-75
2024/02/24 03:27:14;;;;;;;7.90;2.83;;;;;;;5.84;100.00;99399.59;5249889;28;20029;-75
2024/02/24 03:29:45;;;;;;;8.00;2.65;;;;;;;5.85;100.00;99397.75;5242392;28;20081;-74
2024/02/24 03:32:16;;;;;;;4.10;2.20;;;;;;;5.91;100.00;99402.38;5250280;28;20021;-75
2024/02/24 03:34:47;;;;;;;4.03;2.65;;;;;;;5.90;100.00;99395.41;5252981;28;20051;-74
2024/02/24 03:37:17;;;;;;;4.28;2.35;;;;;;;5.93;100.00;99398.59;5253914;28;20461;-74
2024/02/24 03:39:48;;;;;;;6.32;2.50;;;;;;;5.92;100.00;99404.94;5254576;28;20382;-74
2024/02/24 03:42:19;;;;;;;3.47;2.50;;;;;;;5.90;100.00;99398.91;5253838;28;20024;-74
2024/02/24 03:44:50;;;;;;;7.63;2.97;;;;;;;5.76;100.00;99404.09;5253687;28;20040;-74
2024/02/24 03:47:20;;;;;;;10.27;4.22;;;;;;;5.82;100.00;99403.41;5253448;28;20067;-74
2024/02/24 03:49:51;;;;;;;5.30;2.80;;;;;;;5.72;100.00;99404.47;5256110;28;20027;-74
2024/02/24 03:52:21;;;;;;;4.55;2.15;;;;;;;5.69;100.00;99406.63;5252136;28;20111;-74
2024/02/24 03:54:52;;;;;;;7.35;2.30;;;;;;;5.65;100.00;99408.78;5254004;28;20043;-74
2024/02/24 03:57:22;;;;;;;8.88;2.50;;;;;;;5.66;100.00;99417.59;5249457;28;20108;-74
2024/02/24 03:59:53;;;;;;;8.68;2.67;;;;;;;5.67;100.00;99412.13;5255317;28;20496;-74
2024/02/24 04:02:23;;;;;;;5.05;2.40;;;;;;;5.66;100.00;99407.78;5253445;28;20036;-74
2024/02/24 04:04:54;;;;;;;10.57;3.20;;;;;;;5.61;100.00;99414.59;5252544;28;20031;-75
2024/02/24 04:07:24;;;;;;;7.32;3.05;;;;;;;5.67;100.00;99422.75;5254345;28;20024;-74
2024/02/24 04:09:54;;;;;;;5.22;2.55;;;;;;;5.66;100.00;99426.41;5254555;28;20085;-75
2024/02/24 04:12:25;;;;;;;5.35;3.30;;;;;;;5.68;100.00;99423.59;5253353;28;20564;-74
2024/02/24 04:14:55;;;;;;;9.07;2.42;;;;;;;5.70;100.00;99421.56;5255122;28;20420;-74
2024/02/24 04:17:26;;;;;;;5.72;2.40;;;;;;;5.65;100.00;99432.72;5255295;28;20039;-74
2024/02/24 04:19:56;;;;;;;8.40;2.85;;;;;;;5.78;100.00;99428.72;5253957;28;20024;-75
2024/02/24 04:22:27;;;;;;;6.95;2.95;;;;;;;5.69;100.00;99427.91;5270940;28;20060;-74
2024/02/24 04:24:57;;;;;;;8.57;3.42;;;;;;;5.70;100.00;99427.72;5251208;28;20060;-75
2024/02/24 04:27:27;;;;;;;7.35;2.80;;;;;;;5.66;100.00;99433.56;5255701;28;20044;-74
2024/02/24 04:29:58;;;;;;;9.35;2.70;;;;;;;5.75;100.00;99431.72;5251084;28;20024;-74
2024/02/24 04:32:29;;;;;;;6.13;3.15;;;;;;;5.78;100.00;99434.88;5254971;28;20082;-74
2024/02/24 04:34:59;;;;;;;5.50;2.50;;;;;;;5.86;100.00;99436.66;5251548;28;20058;-74
2024/02/24 04:37:30;;;;;;;6.38;3.00;;;;;;;5.84;100.00;99441.34;5250447;28;20028;-74
2024/02/24 04:40:00;;;;;;;8.75;3.28;;;;;;;5.88;100.00;99438.19;5252593;28;20077;-74
2024/02/24 04:42:31;;;;;;;6.72;3.03;;;;;;;5.93;100.00;99435.03;5249040;28;20029;-74
2024/02/24 04:45:01;;;;;;;6.18;2.55;;;;;;;5.95;100.00;99438.34;5251675;28;20044;-75
2024/02/24 04:47:32;;;;;;;5.70;3.10;;;;;;;6.03;100.00;99440.16;5254506;28;20482;-75
2024/02/24 04:50:02;;;;;;;6.65;3.25;;;;;;;5.94;100.00;99442.84;5249323;28;20510;-75
2024/02/24 04:52:33;;;;;;;4.60;2.70;;;;;;;5.95;100.00;99451.66;5252743;28;20482;-75
2024/02/24 04:55:04;;;;;;;5.65;3.15;;;;;;;6.04;100.00;99452.47;5252883;28;20066;-75
2024/02/24 04:57:35;;;;;;;9.45;3.85;;;;;;;6.05;100.00;99452.28;5251391;28;20028;-75
2024/02/24 05:00:06;;;;;;;7.47;3.47;;;;;;;6.07;100.00;99452.94;5251097;28;20018;-74
2024/02/24 05:02:36;;;;;;;7.55;3.20;;;;;;;6.06;100.00;99461.13;5253440;28;20477;-74
2024/02/24 05:05:07;;;;;;;11.25;3.83;;;;;;;6.03;100.00;99458.81;5248751;28;20021;-74
2024/02/24 05:07:38;;;;;;;7.45;3.25;;;;;;;6.11;100.00;99464.09;5253713;28;20093;-75
2024/02/24 05:10:08;;;;;;;7.28;4.03;;;;;;;6.16;100.00;99465.22;5245255;28;20060;-74
2024/02/24 05:12:47;;;;;;;5.00;3.08;;;;;;;6.22;100.00;99466.38;5246050;28;20024;-74
2024/02/24 05:15:18;;;;;;;10.27;3.47;;;;;;;6.25;100.00;99475.88;5251402;28;20028;-74
2024/02/24 05:17:49;;;;;;;6.45;3.25;;;;;;;6.28;100.00;99473.69;5251677;28;20077;-74
2024/02/24 05:20:19;;;;;;;13.55;3.38;;;;;;;6.32;100.00;99476.84;5240219;28;20404;-75
2024/02/24 05:22:50;;;;;;;6.97;3.30;;;;;;;6.32;100.00;99476.84;5254888;28;20039;-74
2024/02/24 05:25:20;;;;;;;7.95;3.38;;;;;;;6.33;100.00;99481.19;5249359;28;20100;-74
2024/02/24 05:27:51;;;;;;;5.25;2.75;;;;;;;6.32;100.00;99479.50;5254109;28;20027;-75
2024/02/24 05:30:21;;;;;;;5.75;3.30;;;;;;;6.35;100.00;99481.81;5249076;28;20024;-74
2024/02/24 05:32:52;;;;;;;7.07;3.20;;;;;;;6.37;100.00;99493.13;5253143;28;20020;-76
2024/02/24 05:35:23;;;;;;;5.15;3.03;;;;;;;6.13;100.00;99516.19;5250228;28;20430;-76
2024/02/24 05:37:53;;;;;;;4.22;2.33;;;;;;;5.98;100.00;99512.56;5248161;28;20029;-75
2024/02/24 05:40:24;;;;;;;2.63;1.77;;;;;;;5.86;100.00;99508.53;5250256;28;20032;-75
2024/02/24 05:42:54;;;;;;;3.15;1.52;;;;;;;5.81;100.00;99506.38;5249069;28;20130;-75
2024/02/24 05:45:24;;;;;;;5.47;1.80;;;;;;;5.62;100.00;99512.91;5252988;28;20107;-75
2024/02/24 05:47:56;;;;;;;2.67;1.42;;;;;;;5.69;100.00;99511.22;5249538;28;20032;-75
2024/02/24 05:50:26;;;;;;;2.40;1.73;;;;;;;5.61;100.00;99505.06;5253244;28;20032;-75
2024/02/24 05:52:57;;;;;;;3.28;2.08;;;;;;;5.61;100.00;99511.22;5251303;28;20043;-75
2024/02/24 05:55:27;;;;;;;3.25;1.88;;;;;;;5.59;100.00;99515.88;5250900;28;20028;-75
2024/02/24 05:57:58;;;;;;;3.28;2.22;;;;;;;5.58;100.00;99519.53;5250189;28;20036;-75
2024/02/24 06:00:28;;;;;;;3.80;2.30;;;;;;;5.45;100.00;99525.34;5265321;28;20104;-75
2024/02/24 06:02:59;;;;;;;4.22;2.95;;;;;;;5.53;100.00;99527.19;5251230;28;20119;-75
2024/02/24 06:05:29;;;;;;;4.50;2.30;;;;;;;5.57;100.00;99523.22;5250307;28;20116;-75
2024/02/24 06:08:00;;;;;;;5.68;2.30;;;;;;;5.55;100.00;99524.34;5245906;28;20063;-74
2024/02/24 06:10:30;;;;;;;6.40;2.60;;;;;;;5.55;100.00;99525.19;5250086;28;20104;-75
2024/02/24 06:13:01;;;;;;;5.30;2.72;;;;;;;5.61;100.00;99540.47;5258845;28;20028;-75
2024/02/24 06:15:31;;;;;;;5.20;3.30;;;;;;;5.52;100.00;99530.81;5254604;28;20032;-74
2024/02/24 06:18:02;;;;;;;6.40;3.30;;;;;;;5.49;100.00;99548.97;5253607;28;20035;-75
2024/02/24 06:20:33;;;;;;;4.55;2.90;;;;;;;5.52;100.00;99546.78;5256084;28;20024;-74
2024/02/24 06:23:03;;;;;;;6.72;3.53;;;;;;;5.49;100.00;99556.94;5251789;28;20034;-75
2024/02/24 06:25:33;;;;;;;6.43;3.70;;;;;;;5.49;100.00;99560.44;5257609;28;20117;-75
2024/02/24 06:28:06;;;;;;;10.40;4.20;;;;;;;5.54;100.00;99560.78;5256414;28;20111;-75
2024/02/24 06:30:37;;;;;;;7.15;3.78;;;;;;;5.56;100.00;99566.75;5254318;28;20497;-74
2024/02/24 06:33:08;;;;;;;9.00;4.53;;;;;;;5.52;100.00;99569.91;5254791;28;20382;-74
2024/02/24 06:35:38;;;;;;;9.77;4.53;;;;;;;5.54;100.00;99576.75;5252450;28;20024;-74
2024/02/24 06:38:09;;;;;;;7.70;4.63;;;;;;;5.59;100.00;99573.59;5252111;28;20062;-74
2024/02/24 06:40:39;;;;;;;9.50;4.82;;;;;;;5.58;100.00;99582.56;5257460;28;20111;-74
2024/02/24 06:43:09;;;;;;;10.63;4.60;;;;;;;5.67;100.00;99587.72;5247555;28;20028;-74
2024/02/24 06:45:40;;;;;;;8.82;4.53;;;;;;;5.59;100.00;99589.53;5256887;28;20056;-75
2024/02/24 06:48:11;;;;;;;8.30;4.93;;;;;;;5.59;100.00;99600.19;5256551;28;20021;-75
2024/02/24 06:50:41;;;;;;;10.52;4.18;;;;;;;5.64;100.00;99595.22;5253132;28;20035;-75
2024/02/24 06:53:12;;;;;;;8.15;4.45;;;;;;;5.59;100.00;99593.03;5255047;28;20078;-75
2024/02/24 06:55:43;;;;;;;10.40;4.88;;;;;;;5.65;100.00;99602.19;5252704;28;20040;-75
2024/02/24 06:58:13;;;;;;;10.63;4.38;;;;;;;5.64;100.00;99608.50;5249448;28;20039;-74
2024/02/24 07:00:44;;;;;;;6.85;4.53;;;;;;;5.68;100.00;99608.03;5249157;28;20428;-75
2024/02/24 07:03:14;;;;;;;11.35;4.93;;;;;;;5.56;100.00;99611.16;5253851;28;20034;-75
2024/02/24 07:05:45;;;;;;;12.82;5.22;;;;;;;5.66;100.00;99614.47;5255835;28;20118;-75
2024/02/24 07:08:15;;;;;;;8.77;4.93;;;;;;;5.66;100.00;99617.16;5257341;28;20089;-75
2024/02/24 07:10:46;;;;;;;10.75;5.32;;;;;;;5.68;100.00;99616.00;5255402;28;20134;-75
2024/02/24 07:13:16;;;;;;;10.35;5.40;;;;;;;5.77;100.00;99622.13;5255981;28;20030;-75
2024/02/24 07:15:47;;;;;;;11.50;5.35;;;;;;;5.81;100.00;99626.13;5259405;28;20031;-75
2024/02/24 07:18:17;;;;;;;11.15;5.10;;;;;;;5.81;100.00;99635.97;5256410;28;20024;-74
2024/02/24 07:20:48;;;;;;;10.23;4.97;;;;;;;5.77;100.00;99634.63;5258962;28;20039;-74
2024/02/24 07:23:18;;;;;;;11.70;5.32;;;;;;;5.86;100.00;99639.78;5252872;28;20122;-74
2024/02/24 07:25:49;;;;;;;8.05;4.50;;;;;;;5.83;100.00;99644.63;5261841;28;20028;-74
2024/02/24 07:28:19;;;;;;;10.48;4.95;;;;;;;5.82;100.00;99646.44;5259684;28;20376;-74
2024/02/24 07:30:50;;;;;;;19.20;5.47;;;;;;;5.82;100.00;99648.25;5251874;28;20029;-74
2024/02/24 07:33:21;;;;;;;8.77;5.15;;;;;;;5.77;100.00;99655.91;5256823;28;20114;-74
2024/02/24 07:35:51;;;;;;;9.25;4.18;;;;;;;5.90;100.00;99659.75;5260055;28;20032;-74
2024/02/24 07:38:22;;;;;;;9.70;4.70;;;;;;;5.97;100.00;99670.59;5255604;28;20660;-74
2024/02/24 07:40:52;;;;;;;8.25;4.35;;;;;;;6.01;100.00;99671.94;5258517;28;20031;-74
2024/02/24 07:43:23;;;;;;;13.32;5.03;;;;;;;6.01;100.00;99676.44;5254006;28;20020;-74
2024/02/24 07:45:53;;;;;;;10.45;4.45;;;;;;;5.90;100.00;99678.41;5257643;28;20155;-74
2024/02/24 07:48:24;;;;;;;9.15;4.78;;;;;;;5.87;100.00;99672.56;5256812;28;20115;-74
2024/02/24 07:50:54;;;;;;;7.95;4.13;;;;;;;5.80;100.00;99685.69;5252111;28;20664;-74
2024/02/24 07:53:24;;;;;;;10.85;4.30;;;;;;;5.66;100.00;99686.31;5254449;28;20830;-74
2024/02/24 07:55:55;;;;;;;7.82;3.95;;;;;;;5.74;100.00;99685.53;5249816;28;20111;-74
2024/02/24 07:58:25;;;;;;;11.57;4.20;;;;;;;5.82;100.00;99694.34;5260623;28;20035;-74
2024/02/24 08:00:56;;;;;;;9.32;4.60;;;;;;;5.82;100.00;99686.34;5254626;28;20404;-74
2024/02/24 08:03:26;;;;;;;8.32;3.15;;;;;;;5.87;100.00;99700.03;5254684;28;20769;-74
2024/02/24 08:05:57;;;;;;;9.98;4.10;;;;;;;5.91;100.00;99700.53;5254363;28;20509;-74
2024/02/24 08:08:28;;;;;;;10.23;4.50;;;;;;;5.91;100.00;99705.84;5253228;28;20028;-74
2024/02/24 08:10:58;;;;;;;9.88;4.03;;;;;;;5.81;100.00;99716.63;5256529;28;20028;-74
2024/02/24 08:13:28;;;;;;;13.05;3.85;;;;;;;5.84;100.00;99721.66;5253663;28;20024;-74
2024/02/24 08:16:03;;;;;;;8.00;3.55;;;;;;;5.82;100.00;99720.13;5255614;28;20020;-74
2024/02/24 08:18:35;;;;;;;7.55;3.90;;;;;;;5.91;100.00;99719.16;5255329;28;20039;-74
2024/02/24 08:21:06;;;;;;;6.85;3.40;;;;;;;5.69;100.00;99720.59;5256336;28;20170;-74
2024/02/24 08:23:37;;;;;;;6.80;3.00;;;;;;;5.78;100.00;99732.13;5252908;28;20133;-74
2024/02/24 08:26:07;;;;;;;4.25;2.40;;;;;;;5.95;100.00;99740.00;5253350;28;20060;-74
2024/02/24 08:28:38;;;;;;;7.20;3.05;;;;;;;6.12;100.00;99740.00;5259404;28;20456;-74
2024/02/24 08:31:08;;;;;;;3.72;2.30;;;;;;;6.22;100.00;99730.03;5250346;28;20497;-74
2024/02/24 08:33:41;;;;;;;5.70;2.45;;;;;;;6.38;100.00;99746.06;5256778;28;20039;-74
2024/02/24 08:36:15;;;;;;;6.35;2.58;;;;;;;6.21;100.00;99736.38;5249034;28;20035;-74
2024/02/24 08:38:46;;;;;;;6.53;2.35;;;;;;;6.10;100.00;99753.50;5255825;28;20057;-74
2024/02/24 08:41:16;;;;;;;4.28;2.67;;;;;;;6.31;100.00;99753.03;5252635;28;20029;-74
2024/02/24 08:43:47;;;;;;;5.20;2.50;;;;;;;6.36;100.00;99761.34;5252836;28;20027;-74
2024/02/24 08:46:19;;;;;;;6.80;2.33;;;;;;;6.33;100.00;99758.22;5248330;28;20024;-74
2024/02/24 08:48:49;;;;;;;6.68;2.00;;;;;;;6.32;100.00;99761.84;5256322;28;20034;-74
2024/02/24 08:51:21;;;;;;;26.58;10.68;;;;;;;6.44;100.00;99764.03;5252292;28;20501;-74
2024/02/24 08:53:51;;;;;;;6.45;4.57;;;;;;;6.45;100.00;99773.69;5255349;28;20024;-74
2024/02/24 08:56:23;;;;;;;4.72;1.67;;;;;;;6.33;100.00;99772.34;5252241;28;20065;-74
2024/02/24 08:58:53;;;;;;;3.92;1.55;;;;;;;6.33;100.00;99780.34;5253340;28;20031;-74
2024/02/24 09:01:24;;;;;;;4.75;1.48;;;;;;;6.34;100.00;99778.50;5254342;28;20028;-74
2024/02/24 09:03:55;;;;;;;4.78;1.63;;;;;;;6.15;100.00;99782.31;5249935;28;20092;-74
2024/02/24 09:06:26;;;;;;;2.92;1.60;;;;;;;6.26;100.00;99776.66;5255742;28;20043;-74
2024/02/24 09:08:56;;;;;;;6.00;1.90;;;;;;;6.33;100.00;99783.00;5253591;28;20381;-74
2024/02/24 09:11:27;;;;;;;3.88;2.03;;;;;;;6.43;100.00;99786.34;5253069;28;20086;-74
2024/02/24 09:13:57;;;;;;;5.60;1.80;;;;;;;6.58;100.00;99788.34;5253522;28;20397;-74
2024/02/24 09:16:28;;;;;;;6.13;2.28;;;;;;;6.92;100.00;99785.50;5252209;28;20445;-74
2024/02/24 09:18:58;;;;;;;3.83;1.50;;;;;;;7.46;100.00;99789.22;5254008;28;20393;-74
2024/02/24 09:21:29;;;;;;;4.78;1.30;;;;;;;7.65;100.00;99793.31;5251099;28;20107;-74
2024/02/24 09:23:59;;;;;;;4.93;1.50;;;;;;;7.86;100.00;99797.22;5253686;28;20043;-74
2024/02/24 09:26:30;;;;;;;2.72;1.30;;;;;;;7.90;100.00;99794.03;5250584;28;20047;-74
2024/02/24 09:29:00;;;;;;;6.18;1.85;;;;;;;7.89;100.00;99796.91;5253974;28;20027;-74
2024/02/24 09:31:31;;;;;;;4.07;1.60;;;;;;;7.74;100.00;99802.13;5257615;28;20039;-74
2024/02/24 09:34:02;;;;;;;8.13;1.42;;;;;;;7.28;100.00;99801.94;5249800;28;20144;-74
2024/02/24 09:36:32;;;;;;;7.60;1.73;;;;;;;6.91;100.00;99803.31;5258015;28;20102;-74
2024/02/24 09:39:03;;;;;;;6.38;1.90;;;;;;;6.93;100.00;99796.00;5251874;28;20408;-74
2024/02/24 09:41:33;;;;;;;5.35;1.92;;;;;;;6.96;100.00;99811.66;5251976;28;20553;-74
2024/02/24 09:44:04;;;;;;;5.90;1.85;;;;;;;6.92;100.00;99820.16;5252279;28;20031;-74
2024/02/24 09:46:36;;;;;;;4.90;1.80;;;;;;;6.77;100.00;99817.31;5253539;28;20081;-74
2024/02/24 09:49:11;;;;;;;7.13;2.17;;;;;;;6.69;100.00;99828.81;5254701;28;20044;-75
2024/02/24 09:51:45;;;;;;;6.03;2.38;;;;;;;6.55;100.00;99818.81;5256471;28;20020;-74
2024/02/24 09:54:15;;;;;;;7.97;2.65;;;;;;;6.40;100.00;99823.97;5236493;28;20371;-74
2024/02/24 09:56:51;;;;;;;4.50;2.20;;;;;;;6.44;100.00;99827.97;5255033;28;20023;-74
2024/02/24 09:59:22;;;;;;;6.78;2.28;;;;;;;6.42;100.00;99826.44;5254263;28;20096;-74
2024/02/24 10:01:53;;;;;;;5.55;2.33;;;;;;;6.36;100.00;99827.13;5253985;28;20042;-74
2024/02/24 10:04:24;;;;;;;4.32;2.20;;;;;;;6.41;100.00;99830.94;5253418;28;20021;-74
2024/02/24 10:06:55;;;;;;;5.65;2.20;;;;;;;6.57;100.00;99834.63;5255436;28;20016;-74
2024/02/24 10:09:25;;;;;;;5.03;2.22;;;;;;;6.65;100.00;99837.31;5251211;28;20032;-74
2024/02/24 10:11:56;;;;;;;10.98;2.30;;;;;;;6.79;100.00;99846.50;5255233;28;20032;-74
2024/02/24 10:14:32;;;;;;;9.73;2.10;;;;;;;6.85;100.00;99849.31;5253035;28;20032;-74
2024/02/24 10:17:04;;;;;;;9.38;2.10;;;;;;;6.85;100.00;99844.00;5251609;28;20475;-74
2024/02/24 10:19:35;;;;;;;6.63;1.80;;;;;;;6.79;100.00;99847.31;5256281;28;20063;-74
2024/02/24 10:22:06;;;;;;;4.18;1.83;;;;;;;6.70;100.00;99845.66;5247234;28;20024;-74
2024/02/24 10:24:36;;;;;;;6.32;2.10;;;;;;;6.72;100.00;99847.13;5255875;28;20024;-74
2024/02/24 10:27:07;;;;;;;7.75;2.22;;;;;;;6.77;100.00;99859.13;5253411;28;20114;-74
2024/02/24 10:29:37;;;;;;;6.07;2.05;;;;;;;6.91;100.00;99858.47;5254915;28;20031;-74
2024/02/24 10:32:09;;;;;;;2.95;1.75;;;;;;;6.89;100.00;99864.00;5251959;28;20476;-74
2024/02/24 10:34:40;;;;;;;7.13;2.05;;;;;;;7.09;100.00;99863.66;5251891;28;20020;-74
2024/02/24 10:37:10;;;;;;;5.40;1.70;;;;;;;7.05;100.00;99870.31;5253065;28;20397;-74
2024/02/24 10:39:43;;;;;;;8.30;2.08;;;;;;;6.91;100.00;99874.47;5251730;28;20138;-74
2024/02/24 10:42:14;;;;;;;9.65;2.00;;;;;;;7.09;100.00;99879.66;5253635;28;20386;-74
2024/02/24 10:44:45;;;;;;;4.65;1.42;;;;;;;6.91;100.00;99875.31;5257625;28;20070;-74
2024/02/24 10:47:16;;;;;;;7.90;1.65;;;;;;;6.78;100.00;99884.78;5255054;28;20028;-74
2024/02/24 10:49:47;;;;;;;5.90;1.60;;;;;;;6.84;100.00;99878.81;5261210;28;20501;-74
2024/02/24 10:52:19;;;;;;;3.58;1.00;;;;;;;6.84;100.00;99877.00;5253073;28;20028;-74
2024/02/24 10:54:51;;;;;;;5.50;1.80;;;;;;;6.73;100.00;99885.31;5260247;28;20035;-74
2024/02/24 10:57:22;;;;;;;7.40;1.98;;;;;;;6.81;100.00;99895.13;5253535;28;20028;-74
2024/02/24 10:59:52;;;;;;;3.88;1.60;;;;;;;6.82;100.00;99897.63;5258091;28;20046;-74
2024/02/24 11:02:23;;;;;;;3.28;1.17;;;;;;;6.83;100.00;99903.78;5270383;28;20025;-74
2024/02/24 11:05:00;;;;;;;6.97;1.42;;;;;;;6.84;100.00;99900.16;5255950;28;20481;-74
2024/02/24 11:07:32;;;;;;;7.03;1.77;;;;;;;6.88;100.00;99906.81;5258067;28;20114;-74
2024/02/24 11:10:03;;;;;;;5.25;1.70;;;;;;;6.77;100.00;99910.63;5257914;28;20052;-74
2024/02/24 11:12:33;;;;;;;2.88;1.20;;;;;;;6.74;100.00;99917.13;5255508;28;20126;-74
2024/02/24 11:15:04;;;;;;;4.07;1.10;;;;;;;6.77;100.00;99912.44;5257131;28;20027;-74
2024/02/24 11:17:51;;;;;;;7.22;1.30;;;;;;;6.80;100.00;99918.31;5255250;28;20032;-74
2024/02/24 11:20:45;;;;;;;3.58;1.35;;;;;;;6.87;100.00;99927.28;5254660;28;20020;-74
2024/02/24 11:23:21;;;;;;;8.35;1.65;;;;;;;6.84;100.00;99919.66;5255833;28;20068;-74
2024/02/24 11:26:10;;;;;;;5.72;1.30;;;;;;;7.02;100.00;99922.16;5256465;28;20034;-74
2024/02/24 11:28:44;;;;;;;5.85;1.20;;;;;;;7.03;100.00;99914.97;5255836;28;20453;-74
2024/02/24 11:31:17;;;;;;;5.28;1.33;;;;;;;6.99;100.00;99915.31;5251101;28;20826;-74
2024/02/24 11:33:57;;;;;;;2.47;0.93;;;;;;;7.36;100.00;99918.47;5257559;28;20032;-74
2024/02/24 11:36:30;;;;;;;3.67;1.40;;;;;;;7.52;100.00;99918.47;5255479;28;20393;-74
2024/02/24 11:39:03;;;;;;;4.93;1.40;;;;;;;7.48;100.00;99915.31;5253625;28;20031;-74
2024/02/24 11:41:35;;;;;;;6.25;1.60;;;;;;;7.62;100.00;99911.09;5254047;28;20110;-74
2024/02/24 11:44:06;;;;;;;2.25;1.25;;;;;;;7.74;100.00;99908.94;5252406;28;20038;-74
2024/02/24 11:46:37;;;;;;;3.30;1.42;;;;;;;8.14;100.00;99929.34;5255936;28;20081;-74
2024/02/24 11:49:07;;;;;;;3.38;1.58;;;;;;;8.25;100.00;99907.56;5256431;28;20032;-74